Classifiche di sempre
Migliori tempi personali validi di team tra tutti gli eventi e le stagioni. Ogni team compare una sola volta per divisione.
Cerca per nome e apri la pagina in cui è classificato questo record di divisione.
138,172 team in classifica
| Pos. | Pos. AG | Team | Nazionalità | Categoria età | TempoMiglior tempo | Distacco |
|---|---|---|---|---|---|---|
| 127352 | #9387 | George Holden & Matias Romero de TerrerosMEX · M 16-24 · AG #9387 | MEX | M 16-24 | 1:37:50 | +50:10 |
| 127353 | #430 | Peter Paulsen & Marcel Van LatenNED · M 55-59 · AG #430 | NED | M 55-59 | 1:37:51 | +50:11 |
| 127354 | #18015 | Jake Figg & Gavin NichollsGBR · M 40-44 · AG #18015 | GBR | M 40-44 | 1:37:51 | +50:11 |
| 127355 | #9388 | Ross Johnson & Cameron MejiaUSA · M 16-24 · AG #9388 | USA | M 16-24 | 1:37:51 | +50:11 |
| 127356 | #46032 | Milo Bousseau-Watrin & Nicolas BousseauFRA · M 30-34 · AG #46032 | FRA | M 30-34 | 1:37:51 | +50:11 |
| 127357 | #46033 | Óscar Adrián García Contreras & David Alexis García ContrerasMEX · M 30-34 · AG #46033 | MEX | M 30-34 | 1:37:51 | +50:11 |
| 127358 | #46039 | 兆森 王 & 诗灏 崔CHN · M 30-34 · AG #46039 | CHN | M 30-34 | 1:37:51 | +50:11 |
| 127359 | #16420 | 俊吾 岩崎 & 佑一 金子JPN · M 25-29 · AG #16420 | JPN | M 25-29 | 1:37:51 | +50:11 |
| 127360 | #16419 | Harsharan Singh & Gursharan SinghHKG · M 25-29 · AG #16419 | HKG | M 25-29 | 1:37:51 | +50:11 |
| 127361 | #2730 | Kelvin Yue & Hiu Wai Ronnie KanHKG · M 50-54 · AG #2730 | HKG | M 50-54 | 1:37:51 | +50:11 |
| 127362 | #2731 | Martin Klepper & Hans Van BeijnenNED · M 50-54 · AG #2731 | NED | M 50-54 | 1:37:51 | +50:11 |
| 127363 | #46035 | Victor Navarro & Julian RozoUSA · M 30-34 · AG #46035 | USA | M 30-34 | 1:37:51 | +50:11 |
| 127364 | #46036 | Maxime Gora & Arnaud ChavrierFRA · M 30-34 · AG #46036 | FRA | M 30-34 | 1:37:51 | +50:11 |
| 127365 | #46037 | Tuan Vo & Jason LeeM 30-34 · AG #46037 | -- | M 30-34 | 1:37:51 | +50:11 |
| 127366 | -- | Antoine Garcia & Mohammed RarrboFRA · M MU29 | FRA | M MU29 | 1:37:51 | +50:11 |
| 127367 | #46038 | Cody McNeal & Denzyel JordanUSA · M 30-34 · AG #46038 | USA | M 30-34 | 1:37:51 | +50:11 |
| 127368 | #46040 | 琦 项 & 光辉 雷CHN · M 30-34 · AG #46040 | CHN | M 30-34 | 1:37:51 | +50:11 |
| 127369 | #14993 | Jason Bland & John HealeyGBR · M 35-39 · AG #14993 | GBR | M 35-39 | 1:37:51 | +50:11 |
| 127370 | #16421 | Ricardo Leija Vazquez & Jorge Garza GonzálezMEX · M 25-29 · AG #16421 | MEX | M 25-29 | 1:37:51 | +50:11 |
| 127371 | #18016 | Francisco Valencia Martínez Del Campo & Luis Arturo Monroy AbunaderMEX · M 40-44 · AG #18016 | MEX | M 40-44 | 1:37:52 | +50:12 |
| 127372 | #16422 | Dung Bach Nguyen & Murat DumencibasiM 25-29 · AG #16422 | -- | M 25-29 | 1:37:52 | +50:12 |
| 127373 | #46041 | Darren Katu & Bronson KatuNZL · M 30-34 · AG #46041 | NZL | M 30-34 | 1:37:52 | +50:12 |
| 127374 | #9389 | Adolfo Sandoval & Leandro GonzalezM 16-24 · AG #9389 | -- | M 16-24 | 1:37:52 | +50:12 |
| 127375 | #14994 | Arnaud Dussart & Jordan DewadderFRA · M 35-39 · AG #14994 | FRA | M 35-39 | 1:37:52 | +50:12 |
| 127376 | #14995 | Sidharth S & Anoop NIND · M 35-39 · AG #14995 | IND | M 35-39 | 1:37:52 | +50:12 |
Pagina 5,095 di 5,527